createdAt,value
2022-12-24T00:01:12.356Z,5.50
2022-12-24T00:03:39.505Z,5.10
2022-12-24T00:06:10.035Z,5.47
2022-12-24T00:08:37.128Z,4.27
2022-12-24T00:11:04.269Z,6.50
2022-12-24T00:13:31.352Z,4.53
2022-12-24T00:15:58.439Z,4.77
2022-12-24T00:18:25.534Z,4.53
2022-12-24T00:20:52.768Z,4.93
2022-12-24T00:23:20.041Z,4.20
2022-12-24T00:25:47.339Z,5.00
2022-12-24T00:28:14.762Z,4.40
2022-12-24T00:30:42.693Z,5.20
2022-12-24T00:33:09.992Z,5.00
2022-12-24T00:35:37.804Z,4.47
2022-12-24T00:38:05.060Z,4.27
2022-12-24T00:40:32.411Z,4.33
2022-12-24T00:42:59.537Z,4.60
2022-12-24T00:45:30.248Z,4.73
2022-12-24T00:47:57.370Z,3.90
2022-12-24T00:50:24.459Z,4.23
2022-12-24T00:52:51.540Z,3.80
2022-12-24T00:55:18.663Z,4.90
2022-12-24T00:57:45.772Z,4.10
2022-12-24T01:00:13.376Z,4.10
2022-12-24T01:02:40.529Z,4.03
2022-12-24T01:05:10.753Z,3.37
2022-12-24T01:07:39.240Z,4.37
2022-12-24T01:10:07.436Z,3.40
2022-12-24T01:12:34.649Z,3.60
2022-12-24T01:15:01.767Z,3.67
2022-12-24T01:17:28.837Z,4.20
2022-12-24T01:19:55.933Z,3.70
2022-12-24T01:22:23.021Z,3.90
2022-12-24T01:24:50.183Z,3.17
2022-12-24T01:27:17.256Z,3.10
2022-12-24T01:29:44.362Z,3.40
2022-12-24T01:32:11.496Z,3.30
2022-12-24T01:34:38.587Z,3.20
2022-12-24T01:37:05.688Z,3.57
2022-12-24T01:39:33.070Z,3.17
2022-12-24T01:42:19.010Z,3.77
2022-12-24T01:44:49.250Z,3.17
2022-12-24T01:47:19.312Z,2.70
2022-12-24T01:49:48.618Z,3.40
2022-12-24T01:52:17.676Z,2.67
2022-12-24T01:54:46.903Z,3.37
2022-12-24T01:57:21.002Z,4.30
2022-12-24T01:59:50.584Z,3.67
2022-12-24T02:02:18.206Z,3.30
2022-12-24T02:04:51.656Z,3.07
2022-12-24T02:07:18.532Z,3.00
2022-12-24T02:09:45.572Z,3.10
2022-12-24T02:12:12.274Z,2.73
2022-12-24T02:14:39.140Z,3.47
2022-12-24T02:17:31.525Z,2.73
2022-12-24T02:20:24.778Z,2.33
2022-12-24T02:23:18.940Z,2.97
2022-12-24T02:26:16.242Z,2.70
2022-12-24T02:29:13.327Z,3.03
2022-12-24T02:32:03.964Z,2.50
2022-12-24T02:34:37.312Z,2.47
2022-12-24T02:37:08.764Z,2.03
2022-12-24T02:39:54.205Z,2.83
2022-12-24T02:42:23.816Z,1.90
2022-12-24T02:45:01.577Z,2.07
2022-12-24T02:47:28.850Z,2.33
2022-12-24T02:49:55.780Z,1.97
2022-12-24T02:52:36.905Z,2.30
2022-12-24T02:55:16.031Z,2.60
2022-12-24T02:57:54.386Z,2.33
2022-12-24T03:00:24.096Z,2.00
2022-12-24T03:03:01.483Z,2.57
2022-12-24T03:05:34.101Z,2.10
2022-12-24T03:08:36.072Z,2.80
2022-12-24T03:11:05.049Z,2.70
2022-12-24T03:13:31.995Z,2.13
2022-12-24T03:15:59.478Z,2.10
2022-12-24T03:18:27.915Z,2.33
2022-12-24T03:21:16.173Z,2.03
2022-12-24T03:23:43.037Z,2.00
2022-12-24T03:26:12.514Z,2.50
2022-12-24T03:28:41.080Z,2.10
2022-12-24T03:31:08.831Z,1.67
2022-12-24T03:33:35.880Z,2.83
2022-12-24T03:36:03.522Z,2.17
2022-12-24T03:38:30.361Z,1.70
2022-12-24T03:40:57.099Z,2.13
2022-12-24T03:43:23.956Z,1.90
2022-12-24T03:45:50.698Z,1.60
2022-12-24T03:48:17.458Z,2.00
2022-12-24T03:50:44.178Z,1.90
2022-12-24T03:53:10.904Z,1.50
2022-12-24T03:55:39.092Z,1.90
2022-12-24T03:58:06.016Z,1.70
2022-12-24T04:00:33.024Z,2.00
2022-12-24T04:02:59.720Z,1.60
2022-12-24T04:05:26.509Z,1.60
2022-12-24T04:07:53.212Z,1.47
2022-12-24T04:10:19.867Z,1.50
2022-12-24T04:12:46.520Z,1.57
2022-12-24T04:15:13.299Z,2.30
2022-12-24T04:17:39.975Z,1.80
2022-12-24T04:20:07.433Z,1.43
2022-12-24T04:22:34.121Z,1.50
2022-12-24T04:25:00.791Z,1.43
2022-12-24T04:27:30.634Z,1.63
2022-12-24T04:29:57.724Z,1.83
2022-12-24T04:32:26.147Z,1.57
2022-12-24T04:34:52.856Z,1.50
2022-12-24T04:37:19.538Z,1.60
2022-12-24T04:39:46.228Z,1.63
2022-12-24T04:42:12.921Z,1.50
2022-12-24T04:44:39.569Z,1.47
2022-12-24T04:47:06.229Z,1.27
2022-12-24T04:49:32.948Z,1.80
2022-12-24T04:51:59.652Z,1.60
2022-12-24T04:54:26.433Z,1.33
2022-12-24T04:56:53.119Z,1.43
2022-12-24T04:59:19.820Z,1.37
2022-12-24T05:01:46.614Z,2.90
2022-12-24T05:04:13.378Z,1.57
2022-12-24T05:06:40.075Z,1.20
2022-12-24T05:09:06.751Z,1.50
2022-12-24T05:11:33.496Z,1.53
2022-12-24T05:14:00.223Z,1.30
2022-12-24T05:16:27.012Z,1.30
2022-12-24T05:18:54.094Z,1.83
2022-12-24T05:21:22.876Z,1.77
2022-12-24T05:24:08.782Z,1.50
2022-12-24T05:26:54.293Z,1.20
2022-12-24T05:29:21.166Z,1.33
2022-12-24T05:31:47.939Z,1.03
2022-12-24T05:34:15.859Z,10.00
2022-12-24T05:36:43.834Z,28.83
2022-12-24T05:39:16.147Z,19.93
2022-12-24T05:41:43.672Z,34.13
2022-12-24T05:44:10.404Z,34.80
2022-12-24T05:46:37.136Z,34.70
2022-12-24T05:49:03.963Z,35.00
2022-12-24T05:51:30.656Z,40.00
2022-12-24T05:53:57.415Z,35.80
2022-12-24T05:56:25.445Z,37.23
2022-12-24T05:58:53.611Z,36.40
2022-12-24T06:01:21.996Z,39.93
2022-12-24T06:03:49.951Z,38.43
2022-12-24T06:06:21.033Z,37.40
2022-12-24T06:08:50.060Z,36.83
2022-12-24T06:11:18.885Z,41.67
2022-12-24T06:13:46.085Z,42.93
2022-12-24T06:16:15.561Z,43.17
2022-12-24T06:18:42.734Z,44.63
2022-12-24T06:21:10.225Z,33.53
2022-12-24T06:23:39.004Z,29.10
2022-12-24T06:26:07.315Z,39.20
2022-12-24T06:28:37.125Z,32.40
2022-12-24T06:31:05.639Z,31.03
2022-12-24T06:33:34.674Z,31.53
2022-12-24T06:36:01.741Z,33.20
2022-12-24T06:38:31.098Z,28.30
2022-12-24T06:40:57.871Z,26.47
2022-12-24T06:43:24.529Z,31.70
2022-12-24T06:45:51.656Z,34.83
2022-12-24T06:48:18.364Z,32.27
2022-12-24T06:50:45.083Z,22.17
2022-12-24T06:53:11.964Z,29.83
2022-12-24T06:55:38.667Z,26.93
2022-12-24T06:58:05.758Z,24.30
2022-12-24T07:00:32.502Z,28.70
2022-12-24T07:02:59.352Z,25.40
2022-12-24T07:05:26.746Z,29.07
2022-12-24T07:07:53.466Z,28.40
2022-12-24T07:10:20.894Z,26.50
2022-12-24T07:12:48.411Z,24.63
2022-12-24T07:15:17.186Z,24.37
2022-12-24T07:17:44.526Z,23.90
2022-12-24T07:20:14.966Z,21.60
2022-12-24T07:22:42.901Z,25.07
2022-12-24T07:25:10.913Z,19.37
2022-12-24T07:27:38.781Z,22.70
2022-12-24T07:30:06.832Z,24.47
2022-12-24T07:32:33.669Z,25.20
2022-12-24T07:35:00.501Z,23.57
2022-12-24T07:37:27.275Z,20.43
2022-12-24T07:39:54.037Z,17.80
2022-12-24T07:42:20.779Z,21.13
2022-12-24T07:44:47.519Z,20.67
2022-12-24T07:47:14.526Z,23.33
2022-12-24T07:49:41.248Z,18.80
2022-12-24T07:52:08.058Z,19.43
2022-12-24T07:54:34.784Z,15.93
2022-12-24T07:57:01.769Z,17.90
2022-12-24T07:59:28.480Z,16.63
2022-12-24T08:01:55.357Z,14.97
2022-12-24T08:04:22.206Z,16.90
2022-12-24T08:06:48.873Z,19.03
2022-12-24T08:09:15.854Z,17.47
2022-12-24T08:11:49.741Z,18.00
2022-12-24T08:14:18.677Z,12.63
2022-12-24T08:16:45.517Z,19.00
2022-12-24T08:19:12.250Z,13.53
2022-12-24T08:21:38.938Z,13.63
2022-12-24T08:24:06.317Z,19.40
2022-12-24T08:26:33.036Z,16.30
2022-12-24T08:28:59.751Z,11.37
2022-12-24T08:31:26.469Z,11.53
2022-12-24T08:33:53.165Z,11.20
2022-12-24T08:36:19.887Z,15.37
2022-12-24T08:38:46.594Z,13.13
2022-12-24T08:41:13.384Z,11.33
2022-12-24T08:43:40.062Z,9.77
2022-12-24T08:46:06.880Z,8.53
2022-12-24T08:48:33.911Z,10.73
2022-12-24T08:51:00.737Z,9.63
2022-12-24T08:53:27.493Z,10.07
2022-12-24T08:56:01.963Z,9.80
2022-12-24T08:58:29.727Z,10.60
2022-12-24T09:00:56.543Z,8.77
2022-12-24T09:03:27.387Z,11.53
2022-12-24T09:05:54.518Z,9.80
2022-12-24T09:08:21.409Z,5.73
2022-12-24T09:10:48.082Z,14.27
2022-12-24T09:13:14.748Z,7.17
2022-12-24T09:15:41.434Z,8.57
2022-12-24T09:18:08.097Z,9.80
2022-12-24T09:20:34.825Z,8.73
2022-12-24T09:23:01.536Z,7.00
2022-12-24T09:25:28.231Z,7.43
2022-12-24T09:27:54.906Z,7.23
2022-12-24T09:30:21.818Z,6.87
2022-12-24T09:32:50.669Z,7.13
2022-12-24T09:35:17.453Z,6.43
2022-12-24T09:37:44.128Z,6.73
2022-12-24T09:40:26.672Z,8.20
2022-12-24T09:42:54.486Z,6.20
2022-12-24T09:45:35.933Z,7.60
2022-12-24T09:48:12.349Z,7.17
2022-12-24T09:51:04.278Z,6.90
2022-12-24T09:53:50.413Z,6.37
2022-12-24T09:56:39.478Z,7.53
2022-12-24T09:59:11.353Z,5.90
2022-12-24T10:01:38.291Z,4.83
2022-12-24T10:04:15.293Z,8.60
2022-12-24T10:07:09.088Z,5.93
2022-12-24T10:09:41.949Z,5.03
2022-12-24T10:12:25.912Z,5.70
2022-12-24T10:15:16.051Z,6.20
2022-12-24T10:18:09.057Z,6.33
2022-12-24T10:20:52.044Z,5.57
2022-12-24T10:23:38.944Z,5.20
2022-12-24T10:26:24.374Z,6.57
2022-12-24T10:29:11.068Z,5.13
2022-12-24T10:31:44.672Z,5.40
2022-12-24T10:34:18.237Z,4.77
2022-12-24T10:36:44.963Z,4.83
2022-12-24T10:39:19.297Z,6.40
2022-12-24T10:41:49.781Z,4.20
2022-12-24T10:44:20.812Z,5.30
2022-12-24T10:46:48.032Z,4.10
2022-12-24T10:49:26.130Z,4.50
2022-12-24T10:51:59.949Z,6.13
2022-12-24T10:54:28.534Z,4.80
2022-12-24T10:57:02.418Z,4.53
2022-12-24T10:59:50.547Z,4.00
2022-12-24T11:02:38.648Z,4.40
2022-12-24T11:05:31.836Z,4.60
2022-12-24T11:08:06.514Z,3.73
2022-12-24T11:10:36.803Z,4.40
2022-12-24T11:13:36.351Z,5.80
2022-12-24T11:15:59.523Z,3.43
2022-12-24T11:18:26.473Z,3.30
2022-12-24T11:20:53.553Z,4.17
2022-12-24T11:23:20.814Z,4.00
2022-12-24T11:25:49.920Z,3.23
2022-12-24T11:28:23.677Z,3.37
2022-12-24T11:31:21.224Z,7.60
2022-12-24T11:33:52.643Z,6.97
2022-12-24T11:36:24.445Z,6.40
2022-12-24T11:38:56.027Z,4.90
2022-12-24T11:41:23.561Z,5.83
2022-12-24T11:43:58.277Z,7.10
2022-12-24T11:46:27.560Z,3.40
2022-12-24T11:49:12.612Z,3.90
2022-12-24T11:51:46.804Z,7.13
2022-12-24T11:54:19.946Z,4.23
2022-12-24T11:56:51.900Z,4.67
2022-12-24T11:59:33.212Z,4.57
2022-12-24T12:02:19.726Z,5.77
2022-12-24T12:04:55.787Z,3.40
2022-12-24T12:07:26.633Z,6.27
2022-12-24T12:10:05.188Z,6.30
2022-12-24T12:12:36.137Z,3.80
2022-12-24T12:15:21.439Z,8.00
2022-12-24T12:17:50.747Z,4.90
2022-12-24T12:20:35.029Z,4.87
2022-12-24T12:23:30.760Z,4.60
2022-12-24T12:26:19.064Z,4.70
2022-12-24T12:29:10.114Z,3.03
2022-12-24T12:31:48.400Z,3.60
2022-12-24T12:34:37.371Z,3.80
2022-12-24T12:37:15.037Z,3.90
2022-12-24T12:39:42.486Z,2.97
2022-12-24T12:42:27.990Z,3.97
2022-12-24T12:45:00.794Z,3.43
2022-12-24T12:47:40.305Z,5.03
2022-12-24T12:50:25.384Z,6.40
2022-12-24T12:53:09.916Z,3.53
2022-12-24T12:55:48.577Z,4.13
2022-12-24T12:58:21.182Z,5.40
2022-12-24T13:00:52.587Z,5.87
2022-12-24T13:03:31.419Z,4.60
2022-12-24T13:06:25.550Z,5.30
2022-12-24T13:09:01.200Z,5.20
2022-12-24T13:11:37.007Z,5.90
2022-12-24T13:14:15.679Z,4.67
2022-12-24T13:17:04.003Z,4.10
2022-12-24T13:19:53.400Z,6.60
2022-12-24T13:22:22.431Z,5.80
2022-12-24T13:24:54.238Z,4.63
2022-12-24T13:27:28.202Z,4.37
2022-12-24T13:30:09.383Z,3.97
2022-12-24T13:32:40.474Z,8.47
2022-12-24T13:35:19.545Z,5.20
2022-12-24T13:37:47.929Z,4.77
2022-12-24T13:40:17.133Z,5.73
2022-12-24T13:42:58.697Z,4.70
2022-12-24T13:45:34.346Z,4.00
2022-12-24T13:48:06.981Z,4.23
2022-12-24T13:50:36.790Z,4.70
2022-12-24T13:53:05.592Z,4.53
2022-12-24T13:55:33.400Z,3.57
2022-12-24T13:58:02.977Z,3.87
2022-12-24T14:00:51.580Z,4.07
2022-12-24T14:03:29.803Z,3.97
2022-12-24T14:06:10.239Z,2.97
2022-12-24T14:08:45.305Z,4.60
2022-12-24T14:11:13.863Z,3.60
2022-12-24T14:13:40.567Z,3.70
2022-12-24T14:16:18.504Z,3.60
2022-12-24T14:19:24.521Z,4.00
2022-12-24T14:22:23.619Z,3.70
2022-12-24T14:25:27.672Z,3.20
2022-12-24T14:28:05.479Z,3.30
2022-12-24T14:30:33.022Z,4.73
2022-12-24T14:32:59.787Z,3.60
2022-12-24T14:35:29.454Z,3.77
2022-12-24T14:38:07.862Z,3.53
2022-12-24T14:40:43.277Z,2.73
2022-12-24T14:43:14.408Z,3.43
2022-12-24T14:45:53.164Z,2.67
2022-12-24T14:48:29.475Z,3.20
2022-12-24T14:51:02.752Z,3.17
2022-12-24T14:54:15.015Z,3.30
2022-12-24T14:56:41.701Z,3.10
2022-12-24T14:59:16.302Z,2.63
2022-12-24T15:01:43.324Z,3.60
2022-12-24T15:04:10.063Z,3.17
2022-12-24T15:06:40.041Z,4.03
2022-12-24T15:09:31.340Z,2.40
2022-12-24T15:12:03.297Z,3.10
2022-12-24T15:14:31.774Z,3.50
2022-12-24T15:17:03.892Z,3.50
2022-12-24T15:19:37.967Z,4.67
2022-12-24T15:22:10.523Z,4.03
2022-12-24T15:24:46.294Z,3.27
2022-12-24T15:27:19.801Z,4.43
2022-12-24T15:29:49.319Z,3.33
2022-12-24T15:32:18.254Z,2.43
2022-12-24T15:34:47.496Z,3.57
2022-12-24T15:37:21.922Z,1.90
2022-12-24T15:40:06.850Z,2.17
2022-12-24T15:42:33.984Z,2.57
2022-12-24T15:45:27.541Z,4.40
2022-12-24T15:48:06.691Z,1.77
2022-12-24T15:50:36.037Z,2.03
2022-12-24T15:53:21.139Z,3.33
2022-12-24T15:56:03.902Z,2.20
2022-12-24T15:58:33.679Z,2.67
2022-12-24T16:01:09.547Z,2.37
2022-12-24T16:03:39.940Z,2.80
2022-12-24T16:06:08.625Z,1.63
2022-12-24T16:08:39.038Z,4.10
2022-12-24T16:11:05.788Z,1.60
2022-12-24T16:13:40.580Z,2.10
2022-12-24T16:16:11.173Z,1.70
2022-12-24T16:18:47.417Z,3.03
2022-12-24T16:21:30.945Z,3.83
2022-12-24T16:24:06.708Z,4.27
2022-12-24T16:26:35.359Z,3.23
2022-12-24T16:29:02.453Z,4.53
2022-12-24T16:31:32.861Z,3.23
2022-12-24T16:34:01.561Z,4.37
2022-12-24T16:36:29.232Z,3.10
2022-12-24T16:39:18.884Z,3.53
2022-12-24T16:42:04.203Z,3.40
2022-12-24T16:44:30.891Z,3.83
2022-12-24T16:47:00.067Z,3.60
2022-12-24T16:49:27.358Z,2.77
2022-12-24T16:51:54.081Z,3.50
2022-12-24T16:54:20.759Z,4.10
2022-12-24T16:56:47.502Z,4.53
2022-12-24T16:59:19.324Z,3.50
2022-12-24T17:01:47.096Z,2.80
2022-12-24T17:04:15.519Z,2.70
2022-12-24T17:06:42.306Z,5.90
2022-12-24T17:09:10.452Z,2.90
2022-12-24T17:11:38.032Z,2.20
2022-12-24T17:14:08.301Z,3.80
2022-12-24T17:16:37.543Z,3.33
2022-12-24T17:19:04.888Z,3.63
2022-12-24T17:21:32.410Z,3.10
2022-12-24T17:23:59.156Z,3.00
2022-12-24T17:26:25.892Z,5.70
2022-12-24T17:28:56.774Z,3.67
2022-12-24T17:31:24.521Z,3.97
2022-12-24T17:33:52.632Z,3.13
2022-12-24T17:36:19.844Z,3.13
2022-12-24T17:38:46.879Z,4.10
2022-12-24T17:41:16.207Z,4.27
2022-12-24T17:43:43.198Z,3.60
2022-12-24T17:46:28.131Z,2.47
2022-12-24T17:48:55.820Z,3.70
2022-12-24T17:51:23.434Z,3.43
2022-12-24T17:53:50.694Z,2.93
2022-12-24T17:56:17.659Z,2.63
2022-12-24T17:58:46.269Z,2.80
2022-12-24T18:01:15.639Z,3.70
2022-12-24T18:03:42.705Z,3.30
2022-12-24T18:06:11.134Z,3.00
2022-12-24T18:08:39.191Z,4.00
2022-12-24T18:11:16.807Z,2.73
2022-12-24T18:13:43.738Z,3.33
2022-12-24T18:16:38.077Z,2.90
2022-12-24T18:19:08.135Z,3.23
2022-12-24T18:21:34.838Z,2.80
2022-12-24T18:24:02.092Z,3.57
2022-12-24T18:26:30.360Z,3.10
2022-12-24T18:28:58.531Z,2.70
2022-12-24T18:31:26.881Z,4.33
2022-12-24T18:33:55.821Z,2.50
2022-12-24T18:36:23.118Z,3.00
2022-12-24T18:38:50.238Z,2.93
2022-12-24T18:41:20.294Z,3.90
2022-12-24T18:43:47.148Z,3.07
2022-12-24T18:46:17.079Z,2.73
2022-12-24T18:48:43.827Z,2.83
2022-12-24T18:51:11.668Z,3.43
2022-12-24T18:53:38.648Z,5.47
2022-12-24T18:56:06.482Z,3.00
2022-12-24T18:58:33.331Z,2.70
2022-12-24T19:01:00.043Z,2.97
2022-12-24T19:03:26.816Z,3.17
2022-12-24T19:05:53.520Z,2.50
2022-12-24T19:08:55.957Z,3.50
2022-12-24T19:11:07.414Z,3.07
2022-12-24T19:13:34.543Z,2.70
2022-12-24T19:16:04.033Z,3.03
2022-12-24T19:18:30.745Z,3.20
2022-12-24T19:20:57.836Z,7.40
2022-12-24T19:23:24.524Z,14.10
2022-12-24T19:25:51.191Z,24.50
2022-12-24T19:28:22.643Z,19.53
2022-12-24T19:30:52.375Z,27.10
2022-12-24T19:33:19.126Z,24.73
2022-12-24T19:35:45.809Z,23.23
2022-12-24T19:38:12.472Z,27.43
2022-12-24T19:40:39.157Z,21.43
2022-12-24T19:43:06.023Z,23.23
2022-12-24T19:45:32.817Z,22.30
2022-12-24T19:47:59.552Z,24.50
2022-12-24T19:50:26.238Z,24.77
2022-12-24T19:52:52.895Z,25.90
2022-12-24T19:55:19.597Z,23.87
2022-12-24T19:57:46.300Z,23.30
2022-12-24T20:00:13.433Z,21.37
2022-12-24T20:02:40.358Z,22.47
2022-12-24T20:05:08.125Z,24.17
2022-12-24T20:07:34.864Z,21.93
2022-12-24T20:10:01.647Z,18.33
2022-12-24T20:12:28.527Z,22.00
2022-12-24T20:14:56.523Z,17.90
2022-12-24T20:17:23.819Z,19.60
2022-12-24T20:19:50.813Z,16.77
2022-12-24T20:22:17.666Z,23.73
2022-12-24T20:24:44.427Z,17.47
2022-12-24T20:27:11.644Z,19.80
2022-12-24T20:29:38.437Z,15.40
2022-12-24T20:32:05.585Z,12.93
2022-12-24T20:34:32.396Z,15.50
2022-12-24T20:36:59.072Z,13.43
2022-12-24T20:39:25.761Z,13.83
2022-12-24T20:41:52.423Z,11.73
2022-12-24T20:44:19.121Z,13.90
2022-12-24T20:46:45.819Z,18.13
2022-12-24T20:49:12.733Z,13.20
2022-12-24T20:51:39.451Z,14.20
2022-12-24T20:54:06.147Z,16.43
2022-12-24T20:56:32.905Z,15.50
2022-12-24T20:59:00.829Z,13.20
2022-12-24T21:01:28.558Z,13.43
2022-12-24T21:03:56.842Z,13.33
2022-12-24T21:06:25.472Z,12.00
2022-12-24T21:08:53.487Z,10.20
2022-12-24T21:11:39.926Z,11.27
2022-12-24T21:14:06.962Z,13.50
2022-12-24T21:16:35.336Z,12.63
2022-12-24T21:19:02.958Z,12.37
2022-12-24T21:21:29.893Z,13.80
2022-12-24T21:23:57.126Z,11.17
2022-12-24T21:26:23.928Z,16.90
2022-12-24T21:28:50.701Z,20.53
2022-12-24T21:31:17.862Z,26.43
2022-12-24T21:33:45.101Z,22.47
2022-12-24T21:36:13.677Z,22.77
2022-12-24T21:38:40.522Z,28.70
2022-12-24T21:41:10.601Z,23.90
2022-12-24T21:43:37.813Z,22.47
2022-12-24T21:46:09.461Z,22.67
2022-12-24T21:48:55.489Z,22.07
2022-12-24T21:51:24.821Z,21.23
2022-12-24T21:54:10.304Z,20.37
2022-12-24T21:56:57.253Z,17.60
2022-12-24T21:59:27.143Z,18.90
2022-12-24T22:01:54.465Z,19.37
2022-12-24T22:04:21.499Z,20.60
2022-12-24T22:07:06.918Z,22.90
2022-12-24T22:09:52.246Z,18.33
2022-12-24T22:12:19.866Z,17.80
2022-12-24T22:14:46.657Z,20.30
2022-12-24T22:17:13.509Z,18.63
2022-12-24T22:19:40.253Z,17.50
2022-12-24T22:22:07.122Z,18.37
2022-12-24T22:24:33.826Z,20.67
2022-12-24T22:27:00.487Z,16.77
2022-12-24T22:29:27.171Z,16.63
2022-12-24T22:31:53.843Z,18.43
2022-12-24T22:34:20.575Z,16.87
2022-12-24T22:36:47.373Z,21.33
2022-12-24T22:39:14.235Z,14.37
2022-12-24T22:41:40.917Z,16.53
2022-12-24T22:44:07.650Z,14.43
2022-12-24T22:46:34.425Z,12.13
2022-12-24T22:49:01.188Z,10.87
2022-12-24T22:51:27.875Z,7.77
2022-12-24T22:53:54.551Z,7.90
2022-12-24T22:56:22.779Z,8.80
2022-12-24T22:58:55.799Z,5.20
2022-12-24T23:01:52.752Z,8.40
2022-12-24T23:04:19.626Z,6.27
2022-12-24T23:06:46.363Z,4.63
2022-12-24T23:09:16.056Z,5.00
2022-12-24T23:11:44.301Z,6.73
2022-12-24T23:14:35.891Z,5.30
2022-12-24T23:17:02.741Z,4.30
2022-12-24T23:19:31.830Z,3.93
2022-12-24T23:21:58.499Z,4.43
2022-12-24T23:24:25.288Z,5.30
2022-12-24T23:26:52.004Z,4.40
2022-12-24T23:29:18.724Z,3.83
2022-12-24T23:31:45.511Z,4.13
2022-12-24T23:34:12.270Z,3.50
2022-12-24T23:36:39.024Z,3.27
2022-12-24T23:39:05.758Z,5.03
2022-12-24T23:41:32.506Z,4.50
2022-12-24T23:43:59.188Z,3.33
2022-12-24T23:46:25.950Z,4.03
2022-12-24T23:48:55.888Z,4.03
2022-12-24T23:51:25.750Z,4.73
2022-12-24T23:53:54.418Z,2.90
2022-12-24T23:56:21.813Z,4.83
2022-12-24T23:58:49.085Z,3.40
